VTSS/HDY METAR and TAF weather

Enter ICAO airport designator
Station Type Date Time Source
VTSS METAR 2020/08/14 16:00 UTC NOAA

VTSS 141600Z 27003KT 9999 FEW020 BKN100 26/26 Q1010 NOSIG


Station Type Date Time Source
VTSS Decoded METAR 2020/08/14 16:00 UTC NOAA

Hat Yai, Thailand (VTSS) 06-55N 100-26E 35M
Aug 14, 2020 - 12:00 PM EDT / 2020.08.14 1600 UTC
Wind: from the W (270 degrees) at 3 MPH (3 KT):0
Visibility: greater than 7 mile(s):0
Sky conditions: mostly cloudy
Temperature: 78 F (26 C)
Dew Point: 78 F (26 C)
Relative Humidity: 100%
Pressure (altimeter): 29.83 in. Hg (1010 hPa)
ob: VTSS 141600Z 27003KT 9999 FEW020 BKN100 26/26 Q1010 NOSIG
cycle: 16

Station Type Date Time Source
VTSS TAF 2020/08/14 12:37 UTC NOAA

TAF VTSS 141100Z 1412/1512 30003KT 9999 FEW020 SCT100
BECMG 1421/1423 3000 BR SCT005
BECMG 1501/1503 9999 NSW FEW020

Example: see airport list